Aérodrome :
LOGIN :

S'inscrire | Disclaimer

   EN    FR    IT 

 










Légende :    VFR   VFR Marginal   IFR   IFR Intensif   IFR Très Intensif
Visi : 
Plafond : 
>= 8 km
>= 3000ft
5 à 8 km
1000 à 3000 ft
1500m à 5 km
500 à 1000 ft
800 à 1500m
200 à 500 ft
< 800m
< 200 ft
Symboles :   Orages  Brouillard  Fortes neiges  Fortes précipitations  Vent > 20 kt
SIGMETs :   Divers  Orages  Givrage  Turbulence  Onde Orograph.  Cendres Volcan.






- Altitude de l'aérodrome : 29 ft


LIRM - Grazzanise Caserta

DERNIER METAR :
  • 241655Z 21005KT CAVOK 27/M02 Q1010

METARs EXPIRÉS :
  • 241555Z 18008KT CAVOK 27/M02 Q1010
  • 241455Z 18010KT CAVOK 27/M01 Q1010 RMK FEW FEW090 VIS MIN 9999 WIND THR06 22010KT BLU

TAF TAF LIRM
Valide du 24 à 18h jusqu'au 25 à 03h UTC


241700Z 2418/2503 18005KT CAVOK



MET'MAP, la Météo Aéronautique d'un coup d'oeil ! - Copyright ORBIFLY Décembre 2007 - Disclaimer

ORBIFLY MET'MAP TEAM :

Programmation & Développement : Alexandra Zaïnal
Sur une idée originale de : Baudouin d'Aumeries
Soutien technique & logistique : Manuel Goepfert
Assistance : Marc-Olivier Méhu

Contact : metmap@orbifly.com




SOURCES & CREDITS :

   NOAA